Airfield :
LOGIN :

Register | Disclaimer

   EN    FR    IT 

 










Legend :    VFR   Marginal VFR   IFR   Intensive IFR   Very Intensive IFR
Visi :
Ceiling :
>= 8 km
>= 3000ft
5 to 8 km
1000 to 3000 ft
1500m to 5 km
500 to 1000 ft
800 to 1500m
200 to 500 ft
< 800m
< 200 ft
Symbols :   Thunderstorms  Fog  Heavy snow  Heavy precipitations  Wind > 20 kt
SIGMETs :     Misc.  Thunderstorms  Icing  Turbulence  Mountain Waves  Volcanic Ashes






- Airport Elevation : 1568 ft


ETSB - Büchel AB

CURRENT METAR :
  • 241422Z 11005KT 0100 R21/0900U FG VV000 03/03 Q1021 RED RED

EXPIRED METARs :
  • 241350Z 12006KT 0100 FG VV000 04/03 Q1022 RED YLO TEMPO RED
  • 241320Z 12004KT 0300 R21/0400N FG VV000 04/04 Q1022 RED YLO TEMPO RED
  • 241220Z 12005KT 0100 FG VV000 03/03 Q1023 RED YLO TEMPO RED
  • 241120Z 10004KT 0050 R21/0200N FG VV001 02/02 Q1023 RED RED

TAF TAF ETSB
Valid from the 24 at 12:00 until the 24 at 21:00 UTC


241120Z 2412/2421 17005KT 0400 FG BKN001
BECMG 2413/2414 14005KT 2000 BR BKN003 BKN007
TEMPO 2414/2417 15003KT 0800 FG BKN001
BECMG 2417/2418 14003KT 0400 FG BKN001 BY ETGL



MET'MAP, your aeronautical weather chart ! - Copyright ORBIFLY December 2007 - Disclaimer

ORBIFLY MET'MAP TEAM :

Programming & Development : Alexandra Zaïnal
Concept & original design : Baudouin d'Aumeries
Assistance for programming : Marc-Olivier Méhu
Technical & hardware support : Manuel Goepfert

Contact : metmap@orbifly.com




SOURCES & CREDITS :

   NOAA